createdAt,value
2022-11-06T00:01:49.113Z,9.8
2022-11-06T00:03:52.190Z,9.7
2022-11-06T00:05:55.304Z,9.8
2022-11-06T00:07:58.434Z,9.7
2022-11-06T00:10:04.757Z,9.8
2022-11-06T00:12:07.872Z,9.8
2022-11-06T00:14:10.999Z,9.8
2022-11-06T00:16:14.105Z,9.9
2022-11-06T00:18:17.219Z,9.7
2022-11-06T00:20:20.345Z,9.8
2022-11-06T00:22:23.454Z,9.7
2022-11-06T00:24:29.770Z,9.7
2022-11-06T00:26:32.892Z,9.6
2022-11-06T00:28:36.002Z,9.6
2022-11-06T00:31:00.382Z,9.7
2022-11-06T00:33:03.481Z,9.6
2022-11-06T00:35:06.595Z,9.6
2022-11-06T00:37:12.920Z,9.8
2022-11-06T00:39:16.046Z,9.8
2022-11-06T00:41:19.169Z,9.7
2022-11-06T00:43:22.259Z,9.7
2022-11-06T00:45:25.390Z,9.8
2022-11-06T00:47:28.492Z,9.8
2022-11-06T00:49:31.631Z,9.7
2022-11-06T00:51:37.938Z,9.7
2022-11-06T00:53:41.067Z,9.8
2022-11-06T00:55:44.179Z,9.8
2022-11-06T00:57:47.304Z,9.7
2022-11-06T00:59:50.458Z,9.7
2022-11-06T01:01:53.707Z,9.7
2022-11-06T01:03:56.662Z,9.8
2022-11-06T01:06:02.984Z,9.9
2022-11-06T01:08:06.126Z,9.9
2022-11-06T01:10:09.246Z,9.9
2022-11-06T01:12:13.961Z,9.9
2022-11-06T01:14:15.465Z,9.8
2022-11-06T01:16:18.603Z,9.8
2022-11-06T01:18:21.727Z,9.9
2022-11-06T01:20:28.024Z,9.9
2022-11-06T01:22:31.149Z,9.9
2022-11-06T01:25:37.438Z,9.9
2022-11-06T01:27:40.575Z,9.8
2022-11-06T01:29:43.693Z,9.8
2022-11-06T01:31:46.804Z,9.9
2022-11-06T01:33:53.159Z,9.8
2022-11-06T01:35:56.283Z,9.9
2022-11-06T01:37:59.393Z,9.9
2022-11-06T01:42:05.633Z,9.9
2022-11-06T01:52:25.962Z,9.9
2022-11-06T01:54:29.075Z,9.8
2022-11-06T01:56:32.194Z,9.9
2022-11-06T01:58:35.291Z,9.9
2022-11-06T02:00:38.417Z,9.8
2022-11-06T02:02:44.864Z,9.9
2022-11-06T02:04:47.866Z,9.8
2022-11-06T02:06:50.973Z,9.9
2022-11-06T02:10:57.233Z,10
2022-11-06T02:13:00.336Z,9.9
2022-11-06T02:15:03.506Z,9.8
2022-11-06T02:17:09.819Z,9.9
2022-11-06T02:19:12.939Z,10
2022-11-06T02:21:16.071Z,10
2022-11-06T02:22:19.231Z,9.9
2022-11-06T02:26:25.498Z,9.8
2022-11-06T02:30:34.959Z,9.8
2022-11-06T02:32:38.065Z,9.9
2022-11-06T02:34:41.200Z,10
2022-11-06T02:36:44.323Z,9.9
2022-11-06T02:38:47.465Z,9.9
2022-11-06T02:40:50.563Z,9.9
2022-11-06T02:42:53.696Z,9.9
2022-11-06T02:45:00.046Z,9.9
2022-11-06T02:47:03.149Z,9.7
2022-11-06T02:49:06.266Z,9.9
2022-11-06T02:51:09.380Z,9.9
2022-11-06T02:53:12.513Z,9.9
2022-11-06T02:55:15.660Z,9.9
2022-11-06T02:57:18.781Z,9.8
2022-11-06T02:59:25.250Z,9.8
2022-11-06T03:01:28.372Z,9.8
2022-11-06T03:03:31.347Z,9.9
2022-11-06T03:05:34.479Z,9.9
2022-11-06T03:07:37.594Z,9.7
2022-11-06T03:09:40.744Z,9.8
2022-11-06T03:11:43.842Z,9.8
2022-11-06T03:13:50.177Z,9.7
2022-11-06T03:15:53.283Z,9.8
2022-11-06T03:17:56.443Z,9.8
2022-11-06T03:18:59.586Z,9.7
2022-11-06T03:21:02.719Z,9.9
2022-11-06T03:23:05.864Z,9.9
2022-11-06T03:25:08.977Z,9.8
2022-11-06T03:29:18.448Z,9.9
2022-11-06T03:31:21.583Z,9.8
2022-11-06T03:35:27.834Z,9.9
2022-11-06T03:45:46.672Z,10
2022-11-06T03:47:49.800Z,9.9
2022-11-06T03:49:52.923Z,9.9
2022-11-06T03:51:56.054Z,9.9
2022-11-06T03:53:59.182Z,9.9
2022-11-06T03:56:05.516Z,10
2022-11-06T03:58:08.613Z,10
2022-11-06T04:00:11.753Z,10
2022-11-06T04:04:17.990Z,9.9
2022-11-06T04:06:21.128Z,10
2022-11-06T04:10:30.582Z,10
2022-11-06T04:17:00.711Z,10
2022-11-06T04:19:03.863Z,9.9
2022-11-06T04:21:06.995Z,10
2022-11-06T04:23:13.290Z,9.9
2022-11-06T04:25:16.428Z,9.9
2022-11-06T04:27:19.558Z,10
2022-11-06T04:29:22.669Z,9.9
2022-11-06T04:31:25.793Z,9.9
2022-11-06T04:33:28.924Z,9.9
2022-11-06T04:35:32.048Z,10
2022-11-06T04:37:38.389Z,10
2022-11-06T04:39:41.504Z,9.9
2022-11-06T04:41:44.625Z,10
2022-11-06T04:43:47.747Z,10.1
2022-11-06T04:45:50.873Z,10.1
2022-11-06T04:47:53.997Z,10
2022-11-06T04:49:57.118Z,10
2022-11-06T04:52:03.463Z,10
2022-11-06T04:54:06.614Z,10
2022-11-06T04:56:09.754Z,10
2022-11-06T04:58:13.102Z,10
2022-11-06T05:00:15.986Z,10.1
2022-11-06T05:02:19.159Z,10.1
2022-11-06T05:04:22.229Z,10.2
2022-11-06T05:06:30.182Z,10.2
2022-11-06T05:08:31.701Z,10.2
2022-11-06T05:10:34.846Z,10.1
2022-11-06T05:13:41.131Z,10.2
2022-11-06T05:15:44.265Z,10.2
2022-11-06T05:17:47.378Z,10.3
2022-11-06T05:21:56.877Z,10.3
2022-11-06T05:24:00.015Z,10.3
2022-11-06T05:26:03.122Z,10.2
2022-11-06T05:28:06.380Z,10.3
2022-11-06T05:30:09.388Z,10.3
2022-11-06T05:32:12.518Z,10.3
2022-11-06T05:34:18.858Z,10.3
2022-11-06T05:36:21.992Z,10.4
2022-11-06T05:38:25.112Z,10.4
2022-11-06T05:40:28.243Z,10.3
2022-11-06T05:42:31.393Z,10.3
2022-11-06T05:46:48.667Z,10.5
2022-11-06T05:48:43.945Z,10.5
2022-11-06T05:50:47.075Z,10.4
2022-11-06T05:52:50.202Z,10.5
2022-11-06T05:54:53.298Z,10.5
2022-11-06T05:56:56.417Z,10.5
2022-11-06T05:58:59.561Z,10.4
2022-11-06T06:01:02.694Z,10.4
2022-11-06T06:03:09.110Z,10.3
2022-11-06T06:05:12.158Z,10.4
2022-11-06T06:07:15.287Z,10.3
2022-11-06T06:08:18.433Z,10.5
2022-11-06T06:14:27.818Z,10.4
2022-11-06T06:16:34.161Z,10.4
2022-11-06T06:18:37.288Z,10.4
2022-11-06T06:20:40.402Z,10.3
2022-11-06T06:22:43.522Z,10.4
2022-11-06T06:24:46.739Z,10.3
2022-11-06T06:26:49.787Z,10.3
2022-11-06T06:28:52.916Z,10.3
2022-11-06T06:31:01.719Z,10.2
2022-11-06T06:33:02.388Z,10.2
2022-11-06T06:35:05.532Z,10.3
2022-11-06T06:37:08.655Z,10.3
2022-11-06T06:39:11.772Z,10.2
2022-11-06T06:41:14.916Z,10.2
2022-11-06T06:43:18.039Z,10.3
2022-11-06T06:45:24.366Z,10.2
2022-11-06T06:47:27.490Z,10.3
2022-11-06T06:49:30.640Z,10.4
2022-11-06T06:51:33.754Z,10.3
2022-11-06T06:53:36.897Z,10.2
2022-11-06T06:55:39.997Z,10.3
2022-11-06T06:59:49.456Z,10.3
2022-11-06T07:01:52.687Z,10.2
2022-11-06T07:03:58.685Z,10.2
2022-11-06T07:04:59.024Z,10.2
2022-11-06T07:07:02.020Z,10.4
2022-11-06T07:09:05.143Z,10.3
2022-11-06T07:11:08.264Z,10.3
2022-11-06T07:19:23.968Z,10.4
2022-11-06T07:21:27.109Z,10.4
2022-11-06T07:25:33.379Z,10.4
2022-11-06T07:27:39.739Z,10.5
2022-11-06T07:29:42.821Z,10.6
2022-11-06T07:31:45.945Z,10.6
2022-11-06T07:33:49.071Z,10.6
2022-11-06T07:35:52.212Z,10.5
2022-11-06T07:37:55.340Z,10.6
2022-11-06T07:40:00.025Z,10.6
2022-11-06T07:42:06.346Z,10.7
2022-11-06T07:44:09.469Z,10.7
2022-11-06T07:46:12.579Z,10.8
2022-11-06T07:48:16.106Z,10.9
2022-11-06T07:50:18.847Z,10.9
2022-11-06T07:52:22.004Z,10.9
2022-11-06T07:54:25.094Z,11
2022-11-06T07:58:34.560Z,11.1
2022-11-06T08:00:37.753Z,11.1
2022-11-06T08:03:01.658Z,11.1
2022-11-06T08:05:04.784Z,11.2
2022-11-06T08:07:07.939Z,11.3
2022-11-06T08:09:14.267Z,11.2
2022-11-06T08:11:17.400Z,11.3
2022-11-06T08:13:20.525Z,11.3
2022-11-06T08:15:23.643Z,11.2
2022-11-06T08:17:26.771Z,11.3
2022-11-06T08:19:29.904Z,11.2
2022-11-06T08:21:33.061Z,11.2
2022-11-06T08:23:39.385Z,11.3
2022-11-06T08:25:42.520Z,11.4
2022-11-06T08:27:45.649Z,11.2
2022-11-06T08:29:48.779Z,11.3
2022-11-06T08:31:51.913Z,11.4
2022-11-06T08:33:55.029Z,11.4
2022-11-06T08:35:58.173Z,11.4
2022-11-06T08:38:04.500Z,11.6
2022-11-06T08:40:07.645Z,11.6
2022-11-06T08:42:10.776Z,11.7
2022-11-06T08:44:13.902Z,11.6
2022-11-06T08:46:17.050Z,11.8
2022-11-06T08:48:20.162Z,11.9
2022-11-06T08:50:23.303Z,12.1
2022-11-06T08:52:33.889Z,12.3
2022-11-06T08:54:32.786Z,12.2
2022-11-06T08:56:35.938Z,12.2
2022-11-06T08:57:39.085Z,12.2
2022-11-06T08:59:42.242Z,12.2
2022-11-06T09:01:45.552Z,12.1
2022-11-06T09:03:48.501Z,12.1
2022-11-06T09:05:54.817Z,12
2022-11-06T09:07:57.985Z,12.1
2022-11-06T09:10:01.101Z,12.1
2022-11-06T09:12:04.225Z,12.1
2022-11-06T09:14:07.344Z,12.2
2022-11-06T09:16:15.551Z,12.3
2022-11-06T09:18:13.622Z,12.1
2022-11-06T09:20:19.946Z,12
2022-11-06T09:22:23.091Z,12
2022-11-06T09:24:49.720Z,12.2
2022-11-06T09:26:29.350Z,12.1
2022-11-06T09:28:32.482Z,12
2022-11-06T09:30:35.630Z,12.1
2022-11-06T09:34:45.125Z,12.3
2022-11-06T09:36:48.259Z,12.5
2022-11-06T09:40:54.511Z,12.5
2022-11-06T09:42:57.657Z,12.5
2022-11-06T09:47:03.906Z,12.4
2022-11-06T09:51:13.380Z,12.2
2022-11-06T09:54:19.662Z,12.2
2022-11-06T09:56:22.814Z,12.3
2022-11-06T09:58:25.946Z,12.3
2022-11-06T10:00:29.093Z,12.3
2022-11-06T10:02:35.451Z,12.4
2022-11-06T10:04:38.564Z,12.4
2022-11-06T10:06:41.678Z,12.5
2022-11-06T10:08:44.813Z,12.6
2022-11-06T10:10:47.933Z,12.7
2022-11-06T10:12:51.080Z,12.7
2022-11-06T10:14:54.219Z,12.9
2022-11-06T10:17:00.539Z,12.9
2022-11-06T10:19:03.678Z,12.9
2022-11-06T10:21:06.817Z,12.9
2022-11-06T10:23:09.945Z,13
2022-11-06T10:25:13.110Z,12.9
2022-11-06T10:27:16.230Z,13.1
2022-11-06T10:29:19.355Z,13
2022-11-06T10:31:25.714Z,13.1
2022-11-06T10:33:28.852Z,13.1
2022-11-06T10:35:32.023Z,13.2
2022-11-06T10:37:35.133Z,13.3
2022-11-06T10:39:38.276Z,13.2
2022-11-06T10:41:41.408Z,13.3
2022-11-06T10:43:44.547Z,13.4
2022-11-06T10:45:50.918Z,13.3
2022-11-06T10:47:54.049Z,13.4
2022-11-06T10:49:57.174Z,13.3
2022-11-06T10:55:06.645Z,13.3
2022-11-06T10:57:09.980Z,13.3
2022-11-06T10:59:16.141Z,13.5
2022-11-06T11:01:19.332Z,13.5
2022-11-06T11:03:22.419Z,13.4
2022-11-06T11:05:25.562Z,13.3
2022-11-06T11:07:28.702Z,13.4
2022-11-06T11:09:31.829Z,13.3
2022-11-06T11:11:34.953Z,13.3
2022-11-06T11:13:41.128Z,13.3
2022-11-06T11:15:44.259Z,13.4
2022-11-06T11:17:47.417Z,13.4
2022-11-06T11:19:50.522Z,13.2
2022-11-06T11:21:53.661Z,13.2
2022-11-06T11:23:56.808Z,13.2
2022-11-06T11:25:59.953Z,13.1
2022-11-06T11:28:06.327Z,13
2022-11-06T11:30:09.447Z,13.1
2022-11-06T11:32:12.596Z,13.2
2022-11-06T11:38:22.021Z,13.3
2022-11-06T11:40:25.179Z,13.3
2022-11-06T11:42:31.550Z,13.2
2022-11-06T11:44:34.661Z,13.1
2022-11-06T11:46:37.815Z,13.2
2022-11-06T11:49:07.440Z,13.2
2022-11-06T11:51:10.482Z,13.1
2022-11-06T11:53:13.522Z,13.1
2022-11-06T11:55:19.776Z,13.2
2022-11-06T11:57:22.936Z,13.2
2022-11-06T11:59:26.061Z,13.1
2022-11-06T12:03:32.360Z,13.3
2022-11-06T12:05:35.484Z,13.2
2022-11-06T12:07:43.438Z,13.3
2022-11-06T12:09:44.889Z,13.1
2022-11-06T12:11:48.038Z,13.1
2022-11-06T12:13:51.174Z,13.4
2022-11-06T12:15:54.350Z,13.4
2022-11-06T12:17:57.467Z,13.5
2022-11-06T12:20:00.640Z,13.5
2022-11-06T12:22:03.760Z,13.8
2022-11-06T12:24:10.047Z,13.8
2022-11-06T12:26:13.061Z,13.9
2022-11-06T12:28:16.310Z,14.1
2022-11-06T12:30:19.136Z,14.1
2022-11-06T12:32:22.168Z,14.2
2022-11-06T12:34:25.222Z,14.1
2022-11-06T12:43:43.587Z,13.5
2022-11-06T12:45:46.626Z,13.4
2022-11-06T12:47:49.642Z,13.3
2022-11-06T12:49:52.729Z,13.2
2022-11-06T12:51:58.869Z,13.3
2022-11-06T12:54:01.920Z,13.2
2022-11-06T12:56:04.937Z,13.2
2022-11-06T12:58:08.000Z,13.1
2022-11-06T13:00:11.122Z,13.2
2022-11-06T13:02:14.447Z,13.2
2022-11-06T13:04:17.335Z,13.2
2022-11-06T13:06:23.703Z,13.1
2022-11-06T13:08:26.840Z,13.1
2022-11-06T13:10:29.988Z,13.1
2022-11-06T13:12:33.119Z,13.1
2022-11-06T13:14:36.143Z,13.1
2022-11-06T13:20:48.811Z,13
2022-11-06T13:22:51.957Z,13.1
2022-11-06T13:24:55.095Z,12.9
2022-11-06T13:31:04.525Z,13
2022-11-06T13:33:07.673Z,13
2022-11-06T13:35:15.574Z,13
2022-11-06T13:37:18.733Z,13
2022-11-06T13:39:21.874Z,13
2022-11-06T13:40:25.040Z,13
2022-11-06T13:42:28.174Z,12.9
2022-11-06T13:44:31.311Z,12.9
2022-11-06T13:46:34.457Z,12.9
2022-11-06T13:48:40.824Z,12.8
2022-11-06T13:50:43.969Z,12.8
2022-11-06T13:52:47.104Z,12.8
2022-11-06T13:54:50.254Z,12.8
2022-11-06T13:56:53.384Z,12.8
2022-11-06T13:58:56.521Z,12.7
2022-11-06T14:00:59.733Z,12.7
2022-11-06T14:03:06.032Z,12.7
2022-11-06T14:07:12.322Z,12.6
2022-11-06T14:09:15.439Z,12.7
2022-11-06T14:11:18.589Z,12.6
2022-11-06T14:13:21.719Z,12.6
2022-11-06T14:15:24.867Z,12.7
2022-11-06T14:19:34.355Z,12.5
2022-11-06T14:21:37.498Z,12.5
2022-11-06T14:23:40.625Z,12.5
2022-11-06T14:25:43.772Z,12.5
2022-11-06T14:27:46.929Z,12.6
2022-11-06T14:29:50.064Z,12.5
2022-11-06T14:31:56.400Z,12.5
2022-11-06T14:33:59.550Z,12.5
2022-11-06T14:36:02.683Z,12.6
2022-11-06T14:37:05.869Z,12.4
2022-11-06T14:39:09.004Z,12.4
2022-11-06T14:43:15.795Z,12.3
2022-11-06T14:47:24.774Z,12.2
2022-11-06T14:49:27.936Z,12
2022-11-06T14:51:31.057Z,11.9
2022-11-06T14:53:34.188Z,11.8
2022-11-06T14:55:37.335Z,11.6
2022-11-06T14:57:40.466Z,11.6
2022-11-06T14:59:46.827Z,11.5
2022-11-06T15:01:50.249Z,11.3
2022-11-06T15:03:53.101Z,11.3
2022-11-06T15:05:56.218Z,11.2
2022-11-06T15:08:04.866Z,11.2
2022-11-06T15:10:02.521Z,10.9
2022-11-06T15:12:05.744Z,10.9
2022-11-06T15:14:11.960Z,10.7
2022-11-06T15:16:15.107Z,10.6
2022-11-06T15:18:18.225Z,10.6
2022-11-06T15:20:21.362Z,10.4
2022-11-06T15:22:24.609Z,10.4
2022-11-06T15:24:27.618Z,10.2
2022-11-06T15:26:30.789Z,10.2
2022-11-06T15:28:37.080Z,9.8
2022-11-06T15:30:40.219Z,9.6
2022-11-06T15:32:43.352Z,9.6
2022-11-06T15:35:13.222Z,9.5
2022-11-06T15:37:16.333Z,9.5
2022-11-06T15:39:19.503Z,9.4
2022-11-06T15:41:25.824Z,9.3
2022-11-06T15:43:28.950Z,9.4
2022-11-06T15:45:32.050Z,9.5
2022-11-06T15:47:35.177Z,9.4
2022-11-06T15:49:38.271Z,9.3
2022-11-06T15:51:41.411Z,9.2
2022-11-06T15:53:44.514Z,9.2
2022-11-06T15:55:50.841Z,9
2022-11-06T15:57:53.984Z,9.1
2022-11-06T15:59:57.076Z,9
2022-11-06T16:02:00.272Z,9
2022-11-06T16:04:03.293Z,9
2022-11-06T16:06:06.420Z,8.9
2022-11-06T16:08:09.538Z,8.8
2022-11-06T16:10:15.875Z,8.8
2022-11-06T16:12:18.972Z,8.8
2022-11-06T16:14:22.107Z,8.6
2022-11-06T16:16:25.193Z,8.7
2022-11-06T16:18:28.303Z,8.6
2022-11-06T16:20:31.404Z,8.6
2022-11-06T16:24:40.839Z,8.4
2022-11-06T16:26:43.973Z,8.3
2022-11-06T16:28:47.198Z,8.4
2022-11-06T16:29:50.227Z,8.2
2022-11-06T16:31:53.335Z,8.2
2022-11-06T16:33:56.431Z,8.2
2022-11-06T16:35:59.540Z,8.2
2022-11-06T16:38:34.044Z,8.1
2022-11-06T16:40:08.987Z,8.2
2022-11-06T16:42:12.076Z,8.2
2022-11-06T16:54:33.955Z,8
2022-11-06T16:56:37.070Z,8
2022-11-06T16:58:40.173Z,8
2022-11-06T17:00:43.279Z,8.1
2022-11-06T17:02:46.617Z,8.1
2022-11-06T17:04:49.503Z,8.2
2022-11-06T17:06:55.798Z,8.2
2022-11-06T17:08:58.927Z,8.2
2022-11-06T17:11:02.026Z,8
2022-11-06T17:13:05.126Z,8.1
2022-11-06T17:15:08.239Z,8.1
2022-11-06T17:17:11.327Z,8.1
2022-11-06T17:19:14.456Z,8.1
2022-11-06T17:21:20.770Z,8
2022-11-06T17:23:24.021Z,8.2
2022-11-06T17:25:26.951Z,8.2
2022-11-06T17:26:30.117Z,8.2
2022-11-06T17:28:33.238Z,8.1
2022-11-06T17:30:36.314Z,8.1
2022-11-06T17:32:39.418Z,8.1
2022-11-06T17:34:45.735Z,8.2
2022-11-06T17:36:48.848Z,8.1
2022-11-06T17:38:51.938Z,8.2
2022-11-06T17:40:55.049Z,8.1
2022-11-06T17:42:58.163Z,8.2
2022-11-06T17:45:01.257Z,8.3
2022-11-06T17:47:04.361Z,8.2
2022-11-06T17:49:16.870Z,8.2
2022-11-06T17:51:13.781Z,8.2
2022-11-06T17:53:16.885Z,8.3
2022-11-06T17:55:19.984Z,8.2
2022-11-06T17:57:24.300Z,8.3
2022-11-06T17:59:26.200Z,8.3
2022-11-06T18:01:29.676Z,8.3
2022-11-06T18:03:36.878Z,8.2
2022-11-06T18:07:41.792Z,8.3
2022-11-06T18:13:51.105Z,8.3
2022-11-06T18:20:03.647Z,8.3
2022-11-06T18:22:07.083Z,8.3
2022-11-06T18:23:09.913Z,8.2
2022-11-06T18:25:13.037Z,8.3
2022-11-06T18:27:16.117Z,8.3
2022-11-06T18:29:19.254Z,8.3
2022-11-06T18:31:25.576Z,8.4
2022-11-06T18:35:31.780Z,8.4
2022-11-06T18:37:34.874Z,8.4
2022-11-06T18:39:37.984Z,8.6
2022-11-06T18:41:41.084Z,8.4
2022-11-06T18:43:44.204Z,8.4
2022-11-06T18:45:50.518Z,8.4
2022-11-06T18:51:59.865Z,8.4
2022-11-06T18:56:06.042Z,8.4
2022-11-06T18:58:09.135Z,8.5
2022-11-06T19:04:21.753Z,8.5
2022-11-06T19:06:24.770Z,8.5
2022-11-06T19:08:27.887Z,8.6
2022-11-06T19:10:30.976Z,8.7
2022-11-06T19:12:34.089Z,8.7
2022-11-06T19:14:40.384Z,8.7
2022-11-06T19:16:43.497Z,8.8
2022-11-06T19:18:46.595Z,8.8
2022-11-06T19:21:10.381Z,8.7
2022-11-06T19:27:24.518Z,8.9
2022-11-06T19:29:27.558Z,8.8
2022-11-06T19:33:33.820Z,8.9
2022-11-06T19:37:40.002Z,9
2022-11-06T19:39:43.109Z,8.9
2022-11-06T19:41:49.426Z,9
2022-11-06T19:43:52.536Z,9
2022-11-06T19:45:55.648Z,9.1
2022-11-06T19:47:58.749Z,9.1
2022-11-06T19:50:01.901Z,9.1
2022-11-06T19:52:41.423Z,9.1
2022-11-06T19:54:08.097Z,9.1
2022-11-06T19:56:14.537Z,9.1
2022-11-06T20:00:20.673Z,9.1
2022-11-06T20:02:23.904Z,9.1
2022-11-06T20:04:26.860Z,9.2
2022-11-06T20:06:30.010Z,9.1
2022-11-06T20:08:33.085Z,9.1
2022-11-06T20:10:39.395Z,9
2022-11-06T20:12:42.520Z,8.9
2022-11-06T20:14:45.635Z,8.9
2022-11-06T20:15:48.764Z,8.9
2022-11-06T20:17:51.899Z,8.9
2022-11-06T20:19:55.003Z,8.9
2022-11-06T20:28:10.652Z,9
2022-11-06T20:30:13.742Z,9.1
2022-11-06T20:32:19.266Z,9
2022-11-06T20:34:19.971Z,9.1
2022-11-06T20:36:23.151Z,9.2
2022-11-06T20:38:29.403Z,9.3
2022-11-06T20:40:34.535Z,9.3
2022-11-06T20:42:35.631Z,9.3
2022-11-06T20:44:38.739Z,9.2
2022-11-06T20:46:41.825Z,9.4
2022-11-06T20:48:44.967Z,9.3
2022-11-06T20:50:48.028Z,9.4
2022-11-06T20:52:54.342Z,9.4
2022-11-06T20:54:57.452Z,9.4
2022-11-06T20:57:00.589Z,9.5
2022-11-06T20:59:03.669Z,9.6
2022-11-06T21:01:06.801Z,9.5
2022-11-06T21:03:09.874Z,9.5
2022-11-06T21:05:12.957Z,9.6
2022-11-06T21:07:19.255Z,9.7
2022-11-06T21:09:22.376Z,9.6
2022-11-06T21:11:25.489Z,9.8
2022-11-06T21:12:28.643Z,9.7
2022-11-06T21:14:31.736Z,9.8
2022-11-06T21:16:34.849Z,9.8
2022-11-06T21:18:37.965Z,9.9
2022-11-06T21:20:44.300Z,9.9
2022-11-06T21:22:47.426Z,10
2022-11-06T21:24:50.495Z,9.9
2022-11-06T21:26:53.609Z,9.9
2022-11-06T21:28:56.723Z,9.9
2022-11-06T21:30:59.856Z,10
2022-11-06T21:33:02.961Z,10
2022-11-06T21:35:09.302Z,10
2022-11-06T21:37:12.424Z,10.1
2022-11-06T21:39:15.535Z,10.2
2022-11-06T21:43:21.773Z,10.2
2022-11-06T21:45:24.882Z,10.2
2022-11-06T21:47:28.192Z,10.2
2022-11-06T21:49:34.334Z,10.2
2022-11-06T21:51:37.452Z,10.3
2022-11-06T21:53:40.541Z,10.4
2022-11-06T21:55:43.668Z,10.4
2022-11-06T21:57:46.798Z,10.3
2022-11-06T21:59:49.910Z,10.3
2022-11-06T22:01:53.201Z,10.4
2022-11-06T22:03:59.378Z,10.5
2022-11-06T22:06:02.468Z,10.5
2022-11-06T22:09:08.762Z,10.6
2022-11-06T22:11:11.886Z,10.6
2022-11-06T22:15:18.121Z,10.6
2022-11-06T22:19:27.565Z,10.7
2022-11-06T22:21:30.674Z,10.6
2022-11-06T22:23:33.795Z,10.8
2022-11-06T22:25:36.914Z,10.9
2022-11-06T22:27:41.143Z,10.8
2022-11-06T22:29:43.169Z,10.8
2022-11-06T22:42:05.115Z,10.8
2022-11-06T22:44:08.256Z,10.9
2022-11-06T22:46:14.560Z,10.9
2022-11-06T22:48:17.675Z,11
2022-11-06T22:50:20.910Z,11
2022-11-06T22:52:23.941Z,11.1
2022-11-06T22:54:27.045Z,10.9
2022-11-06T22:56:30.177Z,11
2022-11-06T22:58:33.295Z,11
2022-11-06T23:00:39.651Z,10.8
2022-11-06T23:02:42.812Z,11
2022-11-06T23:07:15.694Z,11
2022-11-06T23:09:18.825Z,10.9
2022-11-06T23:11:21.947Z,10.8
2022-11-06T23:13:28.270Z,10.9
2022-11-06T23:15:31.381Z,10.9
2022-11-06T23:17:34.516Z,10.9
2022-11-06T23:19:37.780Z,11
2022-11-06T23:21:40.774Z,11
2022-11-06T23:23:44.578Z,11.1
2022-11-06T23:25:47.948Z,11
2022-11-06T23:27:54.284Z,10.9
2022-11-06T23:29:57.521Z,10.8
2022-11-06T23:32:00.543Z,10.8
2022-11-06T23:34:03.669Z,10.9
2022-11-06T23:36:06.766Z,10.8
2022-11-06T23:38:09.890Z,10.9
2022-11-06T23:40:13.005Z,10.8
2022-11-06T23:42:19.340Z,10.9
2022-11-06T23:44:22.488Z,11
2022-11-06T23:46:25.618Z,10.9
2022-11-06T23:48:28.725Z,11.1
2022-11-06T23:50:32.053Z,11.1
2022-11-06T23:52:34.993Z,11.1
2022-11-06T23:54:38.106Z,11.2
2022-11-06T23:56:44.451Z,11.2
2022-11-06T23:58:47.576Z,11.1
